Historique des mesures à Cassis (13260), France
Quotidien Résumé Janvier 25, 2018 Unités:  Métrique/US    US   Métrique
« Précédent (Jour)
Suivant (Jour) »
Quotidien Hebdomadaire Mensuel Annuel Période au choix
  Maximum: Minimum: Moyenne:
Température: 32 °F /  TemperatureC °C 54.3 °F /  12.4 °C 55.4 °F /  13 °C
Point de rosée: 32 °F /  DewpointC °C 45.1 °F /  7.3 °C 48.6 °F /  9.2 °C
Humidité: Humidity % 71 % 74 %
Vitesse du vent: WindSpeedKMH mph /  0 km/h - 3.1 mph /  5 km/h
Rafales: WindSpeedGustKMH mph /  0 km/h - -
Vent:- - SSE
Pression: 0 in /  PressurehPa hPa 30 in /  1014.8 hPa -
Précipitations: 0 in /  0.0 mm    
Historical Graphs
 
 
Mesures pour : Janvier 25, 2018
Heure Temperature Point de rosée Pression Vent Vitesse du vent Rafales Humidité Pluie (par heure) Conditions
32 °F /  TemperatureC °C 32 °F /  DewpointC °C 0 in /  PressurehPa hPa Calm     Humidity % 0 in /  HourlyPrecipMM mm SoftwareType W/m2
00:12 54.3 °F /  12.4 °C 45.1 °F /  7.3 °C 30.2 in /  1023.6 hPa SE 3.2 mph /  5.1 km/h 18.3 mph /  29.5 km/h 71 % 0 in /  0.0 mm open2300-1.11 W/m2
01:12 54.3 °F /  12.4 °C 45.9 °F /  7.7 °C 30.2 in /  1023.2 hPa Calm   3.5 mph /  5.6 km/h 73 % 0 in /  0.0 mm open2300-1.11 W/m2
02:12 54.7 °F /  12.6 °C 46.2 °F /  7.9 °C 30.2 in /  1022.9 hPa ESE 3.5 mph /  5.6 km/h 4.7 mph /  7.6 km/h 73 % 0 in /  0.0 mm open2300-1.11 W/m2
03:12 55.2 °F /  12.9 °C 47.5 °F /  8.6 °C 30.2 in /  1022.6 hPa SSE 3.2 mph /  5.1 km/h 4.7 mph /  7.6 km/h 75 % 0 in /  0.0 mm open2300-1.11 W/m2
04:12 55.2 °F /  12.9 °C 47.5 °F /  8.6 °C 30.2 in /  1021.9 hPa ESE 2.9 mph /  4.7 km/h 6.1 mph /  9.8 km/h 75 % 0 in /  0.0 mm open2300-1.11 W/m2
05:12 55.2 °F /  12.9 °C 48 °F /  8.9 °C 30.2 in /  1021.2 hPa SE 7.2 mph /  11.6 km/h 7.2 mph /  11.6 km/h 77 % 0 in /  0.0 mm open2300-1.11 W/m2
06:12 55.4 °F /  13.0 °C 48.2 °F /  9.0 °C 30.2 in /  1021.2 hPa Calm   5.0 mph /  8 km/h 77 % 0 in /  0.0 mm open2300-1.11 W/m2
07:12 55.6 °F /  13.1 °C 48.4 °F /  9.1 °C 30.1 in /  1020.5 hPa ENE 2.1 mph /  3.4 km/h 5.5 mph /  8.9 km/h 77 % 0 in /  0.0 mm open2300-1.11 W/m2
08:12 55.6 °F /  13.1 °C 48.7 °F /  9.3 °C 30.1 in /  1020.5 hPa Calm   11.1 mph /  17.9 km/h 78 % 0 in /  0.0 mm open2300-1.11 W/m2
09:12 56.1 °F /  13.4 °C 49.6 °F /  9.8 °C 30.1 in /  1020.5 hPa ESE 2.6 mph /  4.2 km/h 5.0 mph /  8 km/h 79 % 0 in /  0.0 mm open2300-1.11 W/m2
10:12 56.8 °F /  13.8 °C 50.7 °F /  10.4 °C 30.1 in /  1019.9 hPa NE 3.5 mph /  5.6 km/h 3.5 mph /  5.6 km/h 80 % 0 in /  0.0 mm open2300-1.11 W/m2
11:12 56.8 °F /  13.8 °C 51.1 °F /  10.6 °C 30.1 in /  1020.2 hPa SW 11.1 mph /  17.9 km/h 11.1 mph /  17.9 km/h 81 % 0 in /  0.0 mm open2300-1.11 W/m2
12:12 57.4 °F /  14.1 °C 51.3 °F /  10.7 °C 30.1 in /  1019.5 hPa Calm   2.1 mph /  3.4 km/h 80 % 0 in /  0.0 mm open2300-1.11 W/m2
13:12 58.1 °F /  14.5 °C 50.9 °F /  10.5 °C 30.1 in /  1018.5 hPa WSW 1.4 mph /  2.3 km/h 3.5 mph /  5.6 km/h 77 % 0 in /  0.0 mm open2300-1.11 W/m2
14:12 59 °F /  15.0 °C 50.7 °F /  10.4 °C 30.1 in /  1017.8 hPa SSE 4.3 mph /  6.9 km/h 4.3 mph /  6.9 km/h 74 % 0 in /  0.0 mm open2300-1.11 W/m2
15:12 58.6 °F /  14.8 °C 50 °F /  10.0 °C 30 in /  1017.2 hPa SE 10.1 mph /  16.3 km/h 12.2 mph /  19.6 km/h 73 % 0 in /  0.0 mm open2300-1.11 W/m2
16:12 57.4 °F /  14.1 °C 49.1 °F /  9.5 °C 30 in /  1016.8 hPa NW 1.8 mph /  2.9 km/h 6.4 mph /  10.3 km/h 74 % 0 in /  0.0 mm open2300-1.11 W/m2
17:12 56.8 °F /  13.8 °C 49.6 °F /  9.8 °C 30 in /  1016.5 hPa Calm   3.5 mph /  5.6 km/h 77 % 0 in /  0.0 mm open2300-1.11 W/m2
18:12 57 °F /  13.9 °C 50.2 °F /  10.1 °C 30 in /  1015.8 hPa ESE 4.0 mph /  6.4 km/h 5.8 mph /  9.3 km/h 78 % 0 in /  0.0 mm open2300-1.11 W/m2
19:12 56.8 °F /  13.8 °C 50.4 °F /  10.2 °C 30 in /  1015.8 hPa SW 4.7 mph /  7.6 km/h 4.7 mph /  7.6 km/h 79 % 0 in /  0.0 mm open2300-1.11 W/m2
20:12 56.8 °F /  13.8 °C 50.7 °F /  10.4 °C 30 in /  1015.5 hPa SSW 3.2 mph /  5.1 km/h 12.6 mph /  20.3 km/h 80 % 0 in /  0.0 mm open2300-1.11 W/m2
21:12 56.5 °F /  13.6 °C 50.4 °F /  10.2 °C 30 in /  1015.1 hPa East 2.1 mph /  3.4 km/h 6.4 mph /  10.3 km/h 80 % 0 in /  0.0 mm open2300-1.11 W/m2
22:12 56.8 °F /  13.8 °C 50.7 °F /  10.4 °C 30 in /  1014.8 hPa ESE 2.9 mph /  4.7 km/h 4.0 mph /  6.4 km/h 80 % 0 in /  0.0 mm open2300-1.11 W/m2
23:12 56.1 °F /  13.4 °C 49.6 °F /  9.8 °C 30 in /  1014.8 hPa ESE 2.6 mph /  4.2 km/h 13.0 mph /  20.9 km/h 79 % 0 in /  0.0 mm open2300-1.11 W/m2
Observations météo à CASSIS
WU-History script by Weather Underground - 1 mb